Time;durP1;ratioP1;P1;durP2;ratioP2;P2;SDS_P1;SDS_P2;PMS_P1;PMS_P2;Temp;Humidity;BMP_temperature;BMP_pressure;BME280_temperature;BME280_humidity;BME280_pressure;Samples;Min_cycle;Max_cycle;Signal;HPM_P1;HPM_P2
2023/09/09 00:00:30;;;;;;;0.10;0.10;;;;;;;;;;5100387;28;20044;-46
2023/09/09 00:02:56;;;;;;;0.10;0.10;;;;;;;;;;5100704;28;20098;-46
2023/09/09 00:05:21;;;;;;;0.10;0.10;;;;;;;;;;5100197;28;20047;-46
2023/09/09 00:07:47;;;;;;;0.10;0.10;;;;;;;;;;5099645;28;20043;-46
2023/09/09 00:10:12;;;;;;;0.10;0.10;;;;;;;;;;5099367;28;20044;-46
2023/09/09 00:12:38;;;;;;;0.10;0.10;;;;;;;;;;5098367;28;20116;-42
2023/09/09 00:15:05;;;;;;;0.10;0.10;;;;;;;;;;5098975;28;20047;-42
2023/09/09 00:17:31;;;;;;;0.10;0.10;;;;;;;;;;5098989;28;20075;-45
2023/09/09 00:19:56;;;;;;;0.10;0.10;;;;;;;;;;5099286;28;20048;-44
2023/09/09 00:22:22;;;;;;;0.10;0.10;;;;;;;;;;5099223;28;20047;-45
2023/09/09 00:24:47;;;;;;;0.10;0.10;;;;;;;;;;5098826;28;20581;-42
2023/09/09 00:27:13;;;;;;;0.10;0.10;;;;;;;;;;5092083;28;20044;-43
2023/09/09 00:29:38;;;;;;;0.10;0.10;;;;;;;;;;5103509;28;20177;-44
2023/09/09 00:32:04;;;;;;;0.10;0.10;;;;;;;;;;5119217;28;20487;-45
2023/09/09 00:34:30;;;;;;;0.10;0.10;;;;;;;;;;5118936;28;20058;-43
2023/09/09 00:36:56;;;;;;;0.15;0.15;;;;;;;;;;5111453;28;20392;-42
2023/09/09 00:39:21;;;;;;;0.10;0.10;;;;;;;;;;5086904;28;20495;-43
2023/09/09 00:41:47;;;;;;;0.10;0.10;;;;;;;;;;5098674;28;20043;-44
2023/09/09 00:44:13;;;;;;;0.10;0.10;;;;;;;;;;5097648;28;20051;-45
2023/09/09 00:46:38;;;;;;;0.10;0.10;;;;;;;;;;5098899;28;20070;-46
2023/09/09 00:49:04;;;;;;;0.20;0.20;;;;;;;;;;5083708;28;20395;-43
2023/09/09 00:51:30;;;;;;;0.10;0.10;;;;;;;;;;5078550;28;20059;-44
2023/09/09 00:53:56;;;;;;;0.20;0.20;;;;;;;;;;5060217;28;20500;-42
2023/09/09 00:56:21;;;;;;;0.10;0.10;;;;;;;;;;5078166;28;20088;-44
2023/09/09 00:58:47;;;;;;;0.10;0.10;;;;;;;;;;5084672;28;20055;-46
2023/09/09 01:01:13;;;;;;;0.10;0.10;;;;;;;;;;5096449;28;20466;-44
2023/09/09 01:03:38;;;;;;;0.10;0.10;;;;;;;;;;5099204;28;20466;-43
2023/09/09 01:06:05;;;;;;;0.10;0.10;;;;;;;;;;5098633;28;20055;-42
2023/09/09 01:08:30;;;;;;;0.10;0.10;;;;;;;;;;5088430;28;20047;-44
2023/09/09 01:10:57;;;;;;;0.10;0.10;;;;;;;;;;5060541;28;20569;-45
2023/09/09 01:13:22;;;;;;;0.10;0.10;;;;;;;;;;5078604;28;20055;-44
2023/09/09 01:15:48;;;;;;;0.10;0.10;;;;;;;;;;5078400;28;20439;-45
2023/09/09 01:18:14;;;;;;;0.10;0.10;;;;;;;;;;5077477;28;20055;-42
2023/09/09 01:20:43;;;;;;;0.10;0.10;;;;;;;;;;5077887;28;20139;-46
2023/09/09 01:23:08;;;;;;;0.10;0.10;;;;;;;;;;5077978;28;20097;-41
2023/09/09 01:25:34;;;;;;;0.10;0.10;;;;;;;;;;5077708;28;20044;-45
2023/09/09 01:27:59;;;;;;;0.10;0.10;;;;;;;;;;5087598;28;20051;-43
2023/09/09 01:30:25;;;;;;;0.30;0.30;;;;;;;;;;5118406;28;20062;-45
2023/09/09 01:32:51;;;;;;;0.10;0.10;;;;;;;;;;5118558;28;20043;-43
2023/09/09 01:35:16;;;;;;;0.17;0.17;;;;;;;;;;5118211;28;20047;-45
2023/09/09 01:37:42;;;;;;;0.10;0.10;;;;;;;;;;5110493;28;20447;-46
2023/09/09 01:40:12;;;;;;;0.10;0.10;;;;;;;;;;5095208;28;20040;-42
2023/09/09 01:42:38;;;;;;;0.10;0.10;;;;;;;;;;5096854;28;20047;-45
2023/09/09 01:45:04;;;;;;;0.10;0.10;;;;;;;;;;5097309;28;20092;-45
2023/09/09 01:47:29;;;;;;;0.10;0.10;;;;;;;;;;5095109;28;20043;-43
2023/09/09 01:49:55;;;;;;;0.10;0.10;;;;;;;;;;5076733;28;20117;-43
2023/09/09 01:52:21;;;;;;;0.10;0.10;;;;;;;;;;5076929;28;20044;-43
2023/09/09 01:54:46;;;;;;;0.10;0.10;;;;;;;;;;5076719;28;20059;-43
2023/09/09 01:57:13;;;;;;;0.20;0.20;;;;;;;;;;5076414;28;20484;-44
2023/09/09 01:59:39;;;;;;;0.10;0.10;;;;;;;;;;5076274;28;20075;-45
2023/09/09 02:02:06;;;;;;;0.30;0.30;;;;;;;;;;5095805;28;20067;-44
2023/09/09 02:04:31;;;;;;;0.15;0.15;;;;;;;;;;5097475;28;20039;-44
2023/09/09 02:06:57;;;;;;;0.10;0.10;;;;;;;;;;5096966;28;20059;-42
2023/09/09 02:09:22;;;;;;;0.13;0.13;;;;;;;;;;5079527;28;20040;-46
2023/09/09 02:11:48;;;;;;;0.10;0.10;;;;;;;;;;5076379;28;20056;-42
2023/09/09 02:14:13;;;;;;;0.10;0.10;;;;;;;;;;5077014;28;20051;-42
2023/09/09 02:16:39;;;;;;;0.10;0.10;;;;;;;;;;5076933;28;20048;-44
2023/09/09 02:19:04;;;;;;;0.10;0.10;;;;;;;;;;5076434;28;20048;-44
2023/09/09 02:21:30;;;;;;;0.10;0.10;;;;;;;;;;5076361;28;20052;-45
2023/09/09 02:23:55;;;;;;;0.10;0.10;;;;;;;;;;5077092;28;20056;-42
2023/09/09 02:26:21;;;;;;;0.10;0.10;;;;;;;;;;5076484;28;20450;-43
2023/09/09 02:28:49;;;;;;;0.10;0.10;;;;;;;;;;5093803;28;20059;-44
2023/09/09 02:31:14;;;;;;;0.00;0.00;;;;;;;;;;5118294;28;20039;-44
2023/09/09 02:33:40;;;;;;;0.10;0.10;;;;;;;;;;5118052;28;20411;-45
2023/09/09 02:36:06;;;;;;;0.10;0.10;;;;;;;;;;5117541;28;20279;-43
2023/09/09 02:38:31;;;;;;;0.10;0.10;;;;;;;;;;5096216;28;20052;-42
2023/09/09 02:40:57;;;;;;;0.10;0.10;;;;;;;;;;5086839;28;20122;-45
2023/09/09 02:43:22;;;;;;;0.10;0.10;;;;;;;;;;5096476;28;20054;-43
2023/09/09 02:45:48;;;;;;;0.20;0.20;;;;;;;;;;5096772;28;20110;-42
2023/09/09 02:48:14;;;;;;;0.10;0.10;;;;;;;;;;5088727;28;20047;-45
2023/09/09 02:50:39;;;;;;;0.10;0.10;;;;;;;;;;5076771;28;20059;-46
2023/09/09 02:53:05;;;;;;;0.10;0.10;;;;;;;;;;5076433;28;20491;-43
2023/09/09 02:55:30;;;;;;;0.32;0.10;;;;;;;;;;5076640;28;20048;-45
2023/09/09 02:57:56;;;;;;;0.10;0.10;;;;;;;;;;5076267;28;20559;-46
2023/09/09 03:00:21;;;;;;;0.10;0.10;;;;;;;;;;5076514;28;20048;-47
2023/09/09 03:02:49;;;;;;;0.10;0.10;;;;;;;;;;5088341;28;20132;-42
2023/09/09 03:05:14;;;;;;;0.20;0.20;;;;;;;;;;5097025;28;20051;-43
2023/09/09 03:07:40;;;;;;;0.10;0.10;;;;;;;;;;5092806;28;20051;-42
2023/09/09 03:10:06;;;;;;;0.20;0.20;;;;;;;;;;5077123;28;20492;-43
2023/09/09 03:12:31;;;;;;;0.20;0.20;;;;;;;;;;5076726;28;20051;-43
2023/09/09 03:14:57;;;;;;;0.10;0.10;;;;;;;;;;5077179;28;20094;-43
2023/09/09 03:17:22;;;;;;;0.10;0.10;;;;;;;;;;5076593;28;20045;-45
2023/09/09 03:19:48;;;;;;;0.10;0.10;;;;;;;;;;5076655;28;20382;-46
2023/09/09 03:22:13;;;;;;;0.10;0.10;;;;;;;;;;5076575;28;20070;-43
2023/09/09 03:24:39;;;;;;;0.10;0.10;;;;;;;;;;5076440;28;20048;-45
2023/09/09 03:27:05;;;;;;;0.10;0.10;;;;;;;;;;5103974;28;20522;-44
2023/09/09 03:29:30;;;;;;;0.10;0.10;;;;;;;;;;5079108;28;20052;-44
2023/09/09 03:31:56;;;;;;;0.10;0.10;;;;;;;;;;5076699;28;20062;-44
2023/09/09 03:34:21;;;;;;;0.10;0.10;;;;;;;;;;5076475;28;20131;-42
2023/09/09 03:36:47;;;;;;;0.10;0.10;;;;;;;;;;5075711;28;20048;-42
2023/09/09 03:39:12;;;;;;;0.10;0.10;;;;;;;;;;5075968;28;20188;-44
2023/09/09 03:41:38;;;;;;;0.10;0.10;;;;;;;;;;5076937;28;20097;-44
2023/09/09 03:44:04;;;;;;;0.20;0.20;;;;;;;;;;5096487;28;20163;-45
2023/09/09 03:46:29;;;;;;;0.10;0.10;;;;;;;;;;5096257;28;20565;-43
2023/09/09 03:48:55;;;;;;;0.10;0.10;;;;;;;;;;5095796;28;20052;-43
2023/09/09 03:51:21;;;;;;;0.10;0.10;;;;;;;;;;5095989;28;20075;-45
2023/09/09 03:53:46;;;;;;;0.20;0.20;;;;;;;;;;5095583;28;20043;-47
2023/09/09 03:56:12;;;;;;;0.10;0.10;;;;;;;;;;5095934;28;20051;-43
2023/09/09 03:58:37;;;;;;;0.10;0.10;;;;;;;;;;5095002;28;20051;-45
2023/09/09 04:01:07;;;;;;;0.10;0.10;;;;;;;;;;5095850;28;20047;-44
2023/09/09 04:03:34;;;;;;;0.10;0.10;;;;;;;;;;5094345;28;20044;-44
2023/09/09 04:06:03;;;;;;;0.10;0.10;;;;;;;;;;5095412;28;20463;-46
2023/09/09 04:08:29;;;;;;;0.10;0.10;;;;;;;;;;5084681;28;20427;-46
2023/09/09 04:10:55;;;;;;;0.10;0.10;;;;;;;;;;5075140;28;20113;-45
2023/09/09 04:13:21;;;;;;;0.10;0.10;;;;;;;;;;5074976;28;20455;-44
2023/09/09 04:15:46;;;;;;;0.10;0.10;;;;;;;;;;5074970;28;20044;-46
2023/09/09 04:18:12;;;;;;;0.10;0.10;;;;;;;;;;5075263;28;20051;-44
2023/09/09 04:20:38;;;;;;;0.10;0.10;;;;;;;;;;5077285;28;20044;-43
2023/09/09 04:23:04;;;;;;;0.10;0.10;;;;;;;;;;5078619;28;20462;-41
2023/09/09 04:25:29;;;;;;;0.38;0.20;;;;;;;;;;5079636;28;20136;-42
2023/09/09 04:27:56;;;;;;;0.10;0.10;;;;;;;;;;5108217;28;20490;-43
2023/09/09 04:30:21;;;;;;;0.10;0.10;;;;;;;;;;5078397;28;20055;-43
2023/09/09 04:32:47;;;;;;;0.10;0.10;;;;;;;;;;5077972;28;20138;-42
2023/09/09 04:35:13;;;;;;;0.10;0.10;;;;;;;;;;5078453;28;20044;-45
2023/09/09 04:37:39;;;;;;;0.10;0.10;;;;;;;;;;5078038;28;20279;-48
2023/09/09 04:40:05;;;;;;;0.10;0.10;;;;;;;;;;5078476;28;20059;-44
2023/09/09 04:42:32;;;;;;;0.10;0.10;;;;;;;;;;5078429;28;20089;-46
2023/09/09 04:44:57;;;;;;;0.10;0.10;;;;;;;;;;5091680;28;20488;-41
2023/09/09 04:47:23;;;;;;;0.20;0.20;;;;;;;;;;5097749;28;20043;-45
2023/09/09 04:49:48;;;;;;;0.10;0.10;;;;;;;;;;5099082;28;20100;-43
2023/09/09 04:52:14;;;;;;;0.10;0.10;;;;;;;;;;5098197;28;20124;-42
2023/09/09 04:54:39;;;;;;;0.10;0.10;;;;;;;;;;5098818;28;20052;-45
2023/09/09 04:57:05;;;;;;;0.10;0.10;;;;;;;;;;5098716;28;20066;-43
2023/09/09 04:59:31;;;;;;;0.10;0.10;;;;;;;;;;5098299;28;20044;-42
2023/09/09 05:01:56;;;;;;;0.13;0.13;;;;;;;;;;5098903;28;20051;-46
2023/09/09 05:04:22;;;;;;;0.10;0.10;;;;;;;;;;5093719;28;20056;-46
2023/09/09 05:06:47;;;;;;;0.10;0.10;;;;;;;;;;5097830;28;20322;-46
2023/09/09 05:09:13;;;;;;;0.13;0.13;;;;;;;;;;5098264;28;20340;-45
2023/09/09 05:11:38;;;;;;;0.10;0.10;;;;;;;;;;5098255;28;20047;-47
2023/09/09 05:14:04;;;;;;;0.10;0.10;;;;;;;;;;5098379;28;20272;-45
2023/09/09 05:16:29;;;;;;;0.10;0.10;;;;;;;;;;5098473;28;20066;-43
2023/09/09 05:18:55;;;;;;;0.10;0.10;;;;;;;;;;5097882;28;20302;-44
2023/09/09 05:21:21;;;;;;;0.10;0.10;;;;;;;;;;5098042;28;20052;-44
2023/09/09 05:23:46;;;;;;;0.10;0.10;;;;;;;;;;5098670;28;20435;-44
2023/09/09 05:26:12;;;;;;;0.10;0.10;;;;;;;;;;5105701;28;20351;-44
2023/09/09 05:28:37;;;;;;;0.10;0.10;;;;;;;;;;5095598;28;20075;-44
2023/09/09 05:31:05;;;;;;;0.13;0.13;;;;;;;;;;5077745;28;20062;-46
2023/09/09 05:33:30;;;;;;;0.20;0.20;;;;;;;;;;5078075;28;20068;-46
2023/09/09 05:35:56;;;;;;;0.10;0.10;;;;;;;;;;5077900;28;20074;-47
2023/09/09 05:38:21;;;;;;;0.10;0.10;;;;;;;;;;5076831;28;20052;-44
2023/09/09 05:40:47;;;;;;;0.20;0.20;;;;;;;;;;5077333;28;20188;-45
2023/09/09 05:43:12;;;;;;;0.20;0.20;;;;;;;;;;5076658;28;20060;-45
2023/09/09 05:45:38;;;;;;;0.15;0.15;;;;;;;;;;5081748;28;20451;-44
2023/09/09 05:48:04;;;;;;;0.10;0.10;;;;;;;;;;5096636;28;20124;-41
2023/09/09 05:50:29;;;;;;;0.10;0.10;;;;;;;;;;5097111;28;20052;-44
2023/09/09 05:52:55;;;;;;;0.10;0.10;;;;;;;;;;5097412;28;20400;-44
2023/09/09 05:55:25;;;;;;;0.10;0.10;;;;;;;;;;5097348;28;20079;-42
2023/09/09 05:57:52;;;;;;;0.10;0.10;;;;;;;;;;5092798;28;20468;-42
2023/09/09 06:00:17;;;;;;;0.15;0.15;;;;;;;;;;5077564;28;20344;-44
2023/09/09 06:02:43;;;;;;;0.10;0.10;;;;;;;;;;5077288;28;20439;-42
2023/09/09 06:05:08;;;;;;;0.10;0.10;;;;;;;;;;5114398;28;20043;-44
2023/09/09 06:07:34;;;;;;;0.13;0.13;;;;;;;;;;5109696;28;20058;-46
2023/09/09 06:10:00;;;;;;;0.13;0.13;;;;;;;;;;5097444;28;20056;-43
2023/09/09 06:12:25;;;;;;;0.10;0.10;;;;;;;;;;5097545;28;20059;-47
2023/09/09 06:14:51;;;;;;;0.10;0.10;;;;;;;;;;5097533;28;20039;-43
2023/09/09 06:17:16;;;;;;;0.10;0.10;;;;;;;;;;5096542;28;20071;-41
2023/09/09 06:19:43;;;;;;;0.10;0.10;;;;;;;;;;5076969;28;20083;-44
2023/09/09 06:22:08;;;;;;;0.10;0.10;;;;;;;;;;5077550;28;20109;-45
2023/09/09 06:24:34;;;;;;;0.10;0.10;;;;;;;;;;5077387;28;20048;-42
2023/09/09 06:27:00;;;;;;;0.10;0.10;;;;;;;;;;5090735;28;20515;-44
2023/09/09 06:29:27;;;;;;;0.40;0.15;;;;;;;;;;5097791;28;20039;-42
2023/09/09 06:31:53;;;;;;;0.10;0.10;;;;;;;;;;5097904;28;20047;-45
2023/09/09 06:34:18;;;;;;;0.10;0.10;;;;;;;;;;5097503;28;20095;-44
2023/09/09 06:36:44;;;;;;;0.10;0.10;;;;;;;;;;5097311;28;20092;-43
2023/09/09 06:39:09;;;;;;;0.10;0.10;;;;;;;;;;5097002;28;20492;-46
2023/09/09 06:41:35;;;;;;;0.10;0.10;;;;;;;;;;5096409;28;20081;-45
2023/09/09 06:44:00;;;;;;;0.10;0.10;;;;;;;;;;5096783;28;20047;-45
2023/09/09 06:46:26;;;;;;;0.13;0.13;;;;;;;;;;5097458;28;20051;-43
2023/09/09 06:48:52;;;;;;;0.13;0.13;;;;;;;;;;5096036;28;20052;-44
2023/09/09 06:51:17;;;;;;;0.10;0.10;;;;;;;;;;5097037;28;20416;-46
2023/09/09 06:53:43;;;;;;;0.10;0.10;;;;;;;;;;5097440;28;20205;-43
2023/09/09 06:56:09;;;;;;;0.10;0.10;;;;;;;;;;5097398;28;20520;-46
2023/09/09 06:58:35;;;;;;;0.20;0.20;;;;;;;;;;5085156;28;20052;-45
2023/09/09 07:01:02;;;;;;;0.10;0.10;;;;;;;;;;5075887;28;20413;-42
2023/09/09 07:03:28;;;;;;;0.10;0.10;;;;;;;;;;5089324;28;20085;-43
2023/09/09 07:05:54;;;;;;;0.10;0.10;;;;;;;;;;5098222;28;20048;-41
2023/09/09 07:08:19;;;;;;;0.20;0.20;;;;;;;;;;5096235;28;20047;-45
2023/09/09 07:10:49;;;;;;;0.20;0.20;;;;;;;;;;5096280;28;20082;-45
2023/09/09 07:13:15;;;;;;;0.10;0.10;;;;;;;;;;5096565;28;20248;-45
2023/09/09 07:15:41;;;;;;;0.10;0.10;;;;;;;;;;5096318;28;20208;-44
2023/09/09 07:18:06;;;;;;;0.10;0.10;;;;;;;;;;5089117;28;20550;-43
2023/09/09 07:20:32;;;;;;;0.10;0.10;;;;;;;;;;5076202;28;20139;-45
2023/09/09 07:22:57;;;;;;;0.10;0.10;;;;;;;;;;5076123;28;20408;-43
2023/09/09 07:25:23;;;;;;;0.10;0.10;;;;;;;;;;5076207;28;20147;-43
2023/09/09 07:27:48;;;;;;;0.10;0.10;;;;;;;;;;5095827;28;20043;-42
2023/09/09 07:30:14;;;;;;;0.10;0.10;;;;;;;;;;5096643;28;20077;-44
2023/09/09 07:32:40;;;;;;;0.10;0.10;;;;;;;;;;5096850;28;20058;-45
2023/09/09 07:35:05;;;;;;;0.10;0.10;;;;;;;;;;5096583;28;20081;-45
2023/09/09 07:37:31;;;;;;;0.10;0.10;;;;;;;;;;5094270;28;20080;-47
2023/09/09 07:39:58;;;;;;;0.10;0.10;;;;;;;;;;5076155;28;20060;-43
2023/09/09 07:42:24;;;;;;;0.10;0.10;;;;;;;;;;5075402;28;20072;-43
2023/09/09 07:44:49;;;;;;;0.10;0.10;;;;;;;;;;5075608;28;20215;-43
2023/09/09 07:47:15;;;;;;;0.10;0.10;;;;;;;;;;5075181;28;20080;-45
2023/09/09 07:49:40;;;;;;;0.10;0.10;;;;;;;;;;5095016;28;20262;-46
2023/09/09 07:52:06;;;;;;;0.10;0.10;;;;;;;;;;5095438;28;20062;-44
2023/09/09 07:54:32;;;;;;;0.10;0.10;;;;;;;;;;5097783;28;20185;-44
2023/09/09 07:56:58;;;;;;;0.10;0.10;;;;;;;;;;5099373;28;20073;-43
2023/09/09 07:59:25;;;;;;;0.20;0.20;;;;;;;;;;5099262;28;20074;-42
2023/09/09 08:01:50;;;;;;;0.10;0.10;;;;;;;;;;5099127;28;20052;-46
2023/09/09 08:04:16;;;;;;;0.10;0.10;;;;;;;;;;5101777;28;20406;-46
2023/09/09 08:06:42;;;;;;;0.10;0.10;;;;;;;;;;5119193;28;20249;-45
2023/09/09 08:09:07;;;;;;;0.10;0.10;;;;;;;;;;5088603;28;20058;-43
2023/09/09 08:11:33;;;;;;;0.10;0.10;;;;;;;;;;5089192;28;20078;-44
2023/09/09 08:13:58;;;;;;;0.10;0.10;;;;;;;;;;5097842;28;20154;-45
2023/09/09 08:16:24;;;;;;;0.10;0.10;;;;;;;;;;5099267;28;20492;-44
2023/09/09 08:18:49;;;;;;;0.20;0.20;;;;;;;;;;5087013;28;20173;-46
2023/09/09 08:21:15;;;;;;;0.10;0.10;;;;;;;;;;5061595;28;20078;-41
2023/09/09 08:23:40;;;;;;;0.60;0.20;;;;;;;;;;5079847;28;20080;-44
2023/09/09 08:26:06;;;;;;;0.10;0.10;;;;;;;;;;5085262;28;20075;-44
2023/09/09 08:28:32;;;;;;;0.10;0.10;;;;;;;;;;5099362;28;20821;-47
2023/09/09 08:30:58;;;;;;;0.32;0.32;;;;;;;;;;5099196;28;20051;-43
2023/09/09 08:33:24;;;;;;;0.10;0.10;;;;;;;;;;5099213;28;20090;-44
2023/09/09 08:35:49;;;;;;;0.10;0.10;;;;;;;;;;5099292;28;20559;-44
2023/09/09 08:38:15;;;;;;;0.75;0.25;;;;;;;;;;5098807;28;20047;-44
2023/09/09 08:40:46;;;;;;;0.10;0.10;;;;;;;;;;5099784;28;20484;-47
2023/09/09 08:43:23;;;;;;;0.10;0.10;;;;;;;;;;5099134;28;20039;-45
2023/09/09 08:46:09;;;;;;;0.10;0.10;;;;;;;;;;5098727;28;20047;-43
2023/09/09 08:48:36;;;;;;;0.10;0.10;;;;;;;;;;5083182;28;20044;-43
2023/09/09 08:51:03;;;;;;;0.20;0.20;;;;;;;;;;5079654;28;20552;-43
2023/09/09 08:53:30;;;;;;;0.10;0.10;;;;;;;;;;5080241;28;20059;-41
2023/09/09 08:55:57;;;;;;;0.10;0.10;;;;;;;;;;5098519;28;20079;-45
2023/09/09 08:58:22;;;;;;;0.10;0.10;;;;;;;;;;5082504;28;20048;-45
2023/09/09 09:00:48;;;;;;;0.10;0.10;;;;;;;;;;5079828;28;20519;-42
2023/09/09 09:03:15;;;;;;;0.10;0.10;;;;;;;;;;5100726;27;20050;-45
2023/09/09 09:05:40;;;;;;;0.10;0.10;;;;;;;;;;5117601;27;20046;-45
2023/09/09 09:08:08;;;;;;;0.10;0.10;;;;;;;;;;5104740;28;20052;-44
2023/09/09 09:10:34;;;;;;;0.10;0.10;;;;;;;;;;5078429;28;20047;-44
2023/09/09 09:12:59;;;;;;;0.10;0.10;;;;;;;;;;5071543;28;20050;-55
2023/09/09 09:15:31;;;;;;;0.10;0.10;;;;;;;;;;5098307;28;20544;-54
2023/09/09 09:17:58;;;;;;;0.10;0.10;;;;;;;;;;5092307;28;20056;-55
2023/09/09 09:20:25;;;;;;;0.10;0.10;;;;;;;;;;5078445;28;20044;-54
2023/09/09 09:22:51;;;;;;;0.10;0.10;;;;;;;;;;5078464;28;20492;-55
2023/09/09 09:25:20;;;;;;;0.10;0.10;;;;;;;;;;5078012;28;20132;-54
2023/09/09 09:27:46;;;;;;;0.10;0.10;;;;;;;;;;5078072;28;20512;-54
2023/09/09 09:30:12;;;;;;;0.10;0.10;;;;;;;;;;5078456;28;20051;-54
2023/09/09 09:32:39;;;;;;;0.10;0.10;;;;;;;;;;5077903;28;20105;-55
2023/09/09 09:35:05;;;;;;;0.10;0.10;;;;;;;;;;5059995;28;20051;-54
2023/09/09 09:37:31;;;;;;;0.10;0.10;;;;;;;;;;5077330;28;20550;-55
2023/09/09 09:39:56;;;;;;;0.10;0.10;;;;;;;;;;5078295;28;20488;-54
2023/09/09 09:42:22;;;;;;;0.10;0.10;;;;;;;;;;5077846;28;20467;-54
2023/09/09 09:44:47;;;;;;;0.10;0.10;;;;;;;;;;5077858;28;20048;-54
2023/09/09 09:47:14;;;;;;;0.10;0.10;;;;;;;;;;5078247;28;20056;-55
2023/09/09 09:49:41;;;;;;;0.10;0.10;;;;;;;;;;5077839;28;20040;-54
2023/09/09 09:52:07;;;;;;;0.10;0.10;;;;;;;;;;5088263;28;20051;-55
2023/09/09 09:54:33;;;;;;;0.10;0.10;;;;;;;;;;5097988;28;20047;-54
2023/09/09 09:57:00;;;;;;;0.10;0.10;;;;;;;;;;5097035;28;20058;-55
2023/09/09 09:59:29;;;;;;;0.10;0.10;;;;;;;;;;5074714;28;20613;-55
2023/09/09 10:01:55;;;;;;;0.10;0.10;;;;;;;;;;5096884;28;20097;-55
2023/09/09 10:04:21;;;;;;;0.10;0.10;;;;;;;;;;5100715;28;20120;-55
2023/09/09 10:06:47;;;;;;;0.20;0.20;;;;;;;;;;5118019;28;20151;-54
2023/09/09 10:09:18;;;;;;;0.10;0.10;;;;;;;;;;5101736;28;20051;-54
2023/09/09 10:11:49;;;;;;;0.10;0.10;;;;;;;;;;5097036;28;20444;-54
2023/09/09 10:14:15;;;;;;;0.10;0.10;;;;;;;;;;5097703;28;20345;-55
2023/09/09 10:16:42;;;;;;;0.10;0.10;;;;;;;;;;5088534;28;20591;-54
2023/09/09 10:19:10;;;;;;;0.10;0.10;;;;;;;;;;5078543;28;20051;-54
2023/09/09 10:21:36;;;;;;;0.10;0.10;;;;;;;;;;5098169;28;20048;-55
2023/09/09 10:24:09;;;;;;;0.10;0.10;;;;;;;;;;5097929;28;20527;-55
2023/09/09 10:26:36;;;;;;;0.10;0.10;;;;;;;;;;5098256;28;20074;-55
2023/09/09 10:29:02;;;;;;;0.10;0.10;;;;;;;;;;5083393;28;20044;-54
2023/09/09 10:31:29;;;;;;;0.10;0.10;;;;;;;;;;5090156;28;20040;-54
2023/09/09 10:33:55;;;;;;;0.10;0.10;;;;;;;;;;5098172;28;20047;-54
2023/09/09 10:36:21;;;;;;;0.10;0.10;;;;;;;;;;5097744;28;20075;-55
2023/09/09 10:38:47;;;;;;;0.10;0.10;;;;;;;;;;5084685;28;20075;-55
2023/09/09 10:41:14;;;;;;;0.10;0.10;;;;;;;;;;5076948;28;20496;-55
2023/09/09 10:43:40;;;;;;;0.10;0.10;;;;;;;;;;5077184;28;20082;-55
2023/09/09 10:46:07;;;;;;;0.10;0.10;;;;;;;;;;5077154;28;20048;-55
2023/09/09 10:48:33;;;;;;;0.10;0.10;;;;;;;;;;5077254;28;20071;-55
2023/09/09 10:51:04;;;;;;;0.10;0.10;;;;;;;;;;5077459;28;20044;-55
2023/09/09 10:53:30;;;;;;;0.10;0.10;;;;;;;;;;5097489;28;20454;-54
2023/09/09 10:55:58;;;;;;;0.10;0.10;;;;;;;;;;5078943;28;20484;-54
2023/09/09 10:58:32;;;;;;;0.10;0.10;;;;;;;;;;5087517;28;20083;-55
2023/09/09 11:00:59;;;;;;;0.10;0.10;;;;;;;;;;5076663;28;20044;-54
2023/09/09 11:03:27;;;;;;;0.10;0.10;;;;;;;;;;5075083;28;20508;-54
2023/09/09 11:05:58;;;;;;;0.10;0.10;;;;;;;;;;5099068;28;20047;-54
2023/09/09 11:08:44;;;;;;;0.10;0.10;;;;;;;;;;5098809;28;20082;-55
2023/09/09 11:11:11;;;;;;;0.10;0.10;;;;;;;;;;5061668;28;20109;-55
2023/09/09 11:13:39;;;;;;;0.10;0.10;;;;;;;;;;5090033;28;20079;-54
2023/09/09 11:16:06;;;;;;;;;;;;;;;;;;5078112;28;20073;-54
2023/09/09 11:18:33;;;;;;;0.10;0.10;;;;;;;;;;5086303;28;20006;-55
2023/09/09 11:21:00;;;;;;;0.10;0.10;;;;;;;;;;5077040;28;20044;-55
2023/09/09 11:23:26;;;;;;;0.10;0.10;;;;;;;;;;5076722;28;20052;-54
2023/09/09 11:25:53;;;;;;;0.10;0.10;;;;;;;;;;5077186;28;20059;-54
2023/09/09 11:28:19;;;;;;;0.10;0.10;;;;;;;;;;5058930;28;20071;-42
2023/09/09 11:30:44;;;;;;;0.10;0.10;;;;;;;;;;5080563;28;20105;-45
2023/09/09 11:33:19;;;;;;;0.20;0.20;;;;;;;;;;5092041;28;20472;-43
2023/09/09 11:35:44;;;;;;;0.10;0.10;;;;;;;;;;5100239;28;20096;-42
2023/09/09 11:38:12;;;;;;;0.10;0.10;;;;;;;;;;5092553;28;20083;-45
2023/09/09 11:40:38;;;;;;;0.10;0.10;;;;;;;;;;5080424;28;20052;-45
2023/09/09 11:43:04;;;;;;;0.10;0.10;;;;;;;;;;5078559;28;20523;-42
2023/09/09 11:45:31;;;;;;;0.10;0.10;;;;;;;;;;5079795;28;20387;-43
2023/09/09 11:47:57;;;;;;;0.10;0.10;;;;;;;;;;5079019;28;20508;-45
2023/09/09 11:50:22;;;;;;;0.10;0.10;;;;;;;;;;5078475;28;20130;-45
2023/09/09 11:52:48;;;;;;;0.10;0.10;;;;;;;;;;5079507;28;20466;-46
2023/09/09 11:55:17;;;;;;;0.10;0.10;;;;;;;;;;5079140;28;20048;-43
2023/09/09 11:57:57;;;;;;;0.10;0.10;;;;;;;;;;5078748;28;20133;-45
2023/09/09 12:00:23;;;;;;;0.10;0.10;;;;;;;;;;5079092;28;20472;-43
2023/09/09 12:02:48;;;;;;;0.10;0.10;;;;;;;;;;5104537;28;20050;-45
2023/09/09 12:05:15;;;;;;;0.10;0.10;;;;;;;;;;5118946;28;20415;-42
2023/09/09 12:07:41;;;;;;;0.10;0.10;;;;;;;;;;5112781;28;20087;-45
2023/09/09 12:10:12;;;;;;;0.10;0.10;;;;;;;;;;5079296;28;20044;-43
2023/09/09 12:12:39;;;;;;;0.10;0.10;;;;;;;;;;5078946;28;20063;-41
2023/09/09 12:15:05;;;;;;;0.17;0.17;;;;;;;;;;5089816;28;20050;-43
2023/09/09 12:17:31;;;;;;;0.10;0.10;;;;;;;;;;5099676;28;20039;-43
2023/09/09 12:19:57;;;;;;;0.10;0.10;;;;;;;;;;5099358;28;20062;-44
2023/09/09 12:22:47;;;;;;;0.32;0.20;;;;;;;;;;5099996;28;20073;-45
2023/09/09 12:25:29;;;;;;;0.10;0.10;;;;;;;;;;5085249;28;20492;-44
2023/09/09 12:27:54;;;;;;;0.10;0.10;;;;;;;;;;5099859;28;20451;-44
2023/09/09 12:30:38;;;;;;;0.10;0.10;;;;;;;;;;5099649;28;20050;-42
2023/09/09 12:33:09;;;;;;;0.10;0.10;;;;;;;;;;5100299;28;20059;-44
2023/09/09 12:35:35;;;;;;;0.10;0.10;;;;;;;;;;5099281;28;20568;-43
2023/09/09 12:38:01;;;;;;;0.10;0.10;;;;;;;;;;5099420;28;20056;-44
2023/09/09 12:40:27;;;;;;;0.10;0.10;;;;;;;;;;5098842;28;20044;-42
2023/09/09 12:42:55;;;;;;;0.10;0.10;;;;;;;;;;5098628;28;20270;-45
2023/09/09 12:45:22;;;;;;;0.10;0.10;;;;;;;;;;5099097;28;20131;-42
2023/09/09 12:47:50;;;;;;;0.10;0.10;;;;;;;;;;5099097;28;20118;-43
2023/09/09 12:50:15;;;;;;;0.10;0.10;;;;;;;;;;5099570;28;20066;-43
2023/09/09 12:52:43;;;;;;;0.10;0.10;;;;;;;;;;5099810;28;20648;-44
2023/09/09 12:55:08;;;;;;;0.10;0.10;;;;;;;;;;5100156;28;20066;-43
2023/09/09 12:57:34;;;;;;;0.10;0.10;;;;;;;;;;5099328;28;20043;-42
2023/09/09 12:59:59;;;;;;;0.10;0.10;;;;;;;;;;5101374;28;20427;-47
2023/09/09 13:02:25;;;;;;;0.10;0.10;;;;;;;;;;5105715;28;20432;-45
2023/09/09 13:04:50;;;;;;;0.10;0.10;;;;;;;;;;5113896;28;20111;-42
2023/09/09 13:07:16;;;;;;;0.10;0.10;;;;;;;;;;5118238;28;20043;-43
2023/09/09 13:09:43;;;;;;;0.10;0.10;;;;;;;;;;5078934;28;20043;-42
2023/09/09 13:12:09;;;;;;;0.10;0.10;;;;;;;;;;5078073;28;20390;-44
2023/09/09 13:14:35;;;;;;;0.10;0.10;;;;;;;;;;5078657;28;20447;-44
2023/09/09 13:17:00;;;;;;;0.10;0.10;;;;;;;;;;5090370;28;20058;-44
2023/09/09 13:19:26;;;;;;;0.10;0.10;;;;;;;;;;5080849;28;20449;-42
2023/09/09 13:21:56;;;;;;;0.10;0.10;;;;;;;;;;5097559;28;20059;-44
2023/09/09 13:24:22;;;;;;;0.10;0.10;;;;;;;;;;5098120;28;20044;-45
2023/09/09 13:26:47;;;;;;;0.10;0.10;;;;;;;;;;5098204;28;20048;-44
2023/09/09 13:29:13;;;;;;;0.10;0.10;;;;;;;;;;5082062;28;20071;-44
2023/09/09 13:31:38;;;;;;;0.10;0.10;;;;;;;;;;5077864;28;20404;-43
2023/09/09 13:34:04;;;;;;;0.10;0.10;;;;;;;;;;5077716;28;20051;-45
2023/09/09 13:36:30;;;;;;;0.10;0.10;;;;;;;;;;5087517;28;20059;-44
2023/09/09 13:38:55;;;;;;;0.10;0.10;;;;;;;;;;5097332;28;20051;-45
2023/09/09 13:41:26;;;;;;;0.10;0.10;;;;;;;;;;5097741;28;20138;-43
2023/09/09 13:43:51;;;;;;;0.10;0.10;;;;;;;;;;5098300;28;20047;-46
2023/09/09 13:46:17;;;;;;;0.10;0.10;;;;;;;;;;5097648;28;20433;-44
2023/09/09 13:48:42;;;;;;;0.10;0.10;;;;;;;;;;5098066;28;20043;-42
2023/09/09 13:51:09;;;;;;;0.13;0.13;;;;;;;;;;5097944;28;20051;-45
2023/09/09 13:53:35;;;;;;;0.10;0.10;;;;;;;;;;5098459;28;20051;-42
2023/09/09 13:56:00;;;;;;;0.10;0.10;;;;;;;;;;5098449;28;20050;-45
2023/09/09 13:58:26;;;;;;;0.10;0.10;;;;;;;;;;5097968;28;20047;-43
2023/09/09 14:00:52;;;;;;;0.10;0.10;;;;;;;;;;5106217;28;20049;-45
2023/09/09 14:03:17;;;;;;;0.10;0.10;;;;;;;;;;5101153;28;20483;-45
2023/09/09 14:05:43;;;;;;;0.10;0.10;;;;;;;;;;5118361;28;20252;-42
2023/09/09 14:08:09;;;;;;;0.10;0.10;;;;;;;;;;5103609;28;20044;-45
2023/09/09 14:10:34;;;;;;;0.10;0.10;;;;;;;;;;5077908;28;20070;-44
2023/09/09 14:13:00;;;;;;;0.10;0.10;;;;;;;;;;5077845;28;20052;-44
2023/09/09 14:15:25;;;;;;;0.10;0.10;;;;;;;;;;5077781;28;20143;-45
2023/09/09 14:17:51;;;;;;;0.20;0.20;;;;;;;;;;5082479;28;20051;-44
2023/09/09 14:20:17;;;;;;;0.10;0.10;;;;;;;;;;5098066;28;20116;-43
2023/09/09 14:22:46;;;;;;;0.10;0.10;;;;;;;;;;5097694;28;20532;-44
2023/09/09 14:25:12;;;;;;;0.10;0.10;;;;;;;;;;5098119;28;20429;-43
2023/09/09 14:27:37;;;;;;;0.10;0.10;;;;;;;;;;5094301;28;20671;-45
2023/09/09 14:30:03;;;;;;;0.10;0.10;;;;;;;;;;5077407;28;20456;-44
2023/09/09 14:32:29;;;;;;;0.10;0.10;;;;;;;;;;5077445;28;20078;-44
2023/09/09 14:34:54;;;;;;;0.10;0.10;;;;;;;;;;5077272;28;20094;-45
2023/09/09 14:37:20;;;;;;;0.10;0.10;;;;;;;;;;5078373;28;20443;-47